Time;durP1;ratioP1;P1;durP2;ratioP2;P2;SDS_P1;SDS_P2;PMS_P1;PMS_P2;Temp;Humidity;BMP_temperature;BMP_pressure;BME280_temperature;BME280_humidity;BME280_pressure;Samples;Min_cycle;Max_cycle;Signal;HPM_P1;HPM_P2
2022/06/12 00:00:59;;;;;;;33.75;5.85;;;;;;;;;;4863728;29;20425;-66
2022/06/12 00:03:26;;;;;;;26.48;5.35;;;;;;;;;;4864293;29;20111;-66
2022/06/12 00:05:53;;;;;;;33.58;5.72;;;;;;;;;;4863817;29;20060;-65
2022/06/12 00:08:19;;;;;;;33.92;5.85;;;;;;;;;;4864456;29;20078;-65
2022/06/12 00:10:45;;;;;;;32.38;6.00;;;;;;;;;;4863315;29;20060;-65
2022/06/12 00:13:13;;;;;;;31.63;5.80;;;;;;;;;;4864652;29;20143;-65
2022/06/12 00:15:39;;;;;;;36.22;7.00;;;;;;;;;;4864222;29;20797;-66
2022/06/12 00:18:04;;;;;;;35.80;6.03;;;;;;;;;;4851220;29;20043;-67
2022/06/12 00:20:30;;;;;;;38.20;6.07;;;;;;;;;;4866241;29;20123;-66
2022/06/12 00:22:56;;;;;;;35.17;6.43;;;;;;;;;;4867986;29;20036;-67
2022/06/12 00:25:23;;;;;;;36.22;5.55;;;;;;;;;;4866542;29;20644;-67
2022/06/12 00:27:51;;;;;;;38.80;6.28;;;;;;;;;;4867097;29;20308;-66
2022/06/12 00:30:19;;;;;;;36.03;5.75;;;;;;;;;;4866394;29;20028;-64
2022/06/12 00:32:49;;;;;;;42.53;6.40;;;;;;;;;;4866525;29;20040;-65
2022/06/12 00:35:15;;;;;;;37.42;6.72;;;;;;;;;;4867450;29;20032;-66
2022/06/12 00:37:40;;;;;;;34.75;6.10;;;;;;;;;;4865518;29;20072;-66
2022/06/12 00:40:06;;;;;;;36.55;5.72;;;;;;;;;;4867788;29;20040;-66
2022/06/12 00:42:35;;;;;;;39.72;6.18;;;;;;;;;;4864811;29;20270;-66
2022/06/12 00:45:03;;;;;;;33.00;5.80;;;;;;;;;;4865168;29;20040;-65
2022/06/12 00:47:36;;;;;;;30.25;5.65;;;;;;;;;;4867421;29;20991;-66
2022/06/12 00:50:04;;;;;;;39.60;6.53;;;;;;;;;;4866528;29;20048;-65
2022/06/12 00:52:33;;;;;;;30.15;6.05;;;;;;;;;;4846443;29;20112;-67
2022/06/12 00:55:07;;;;;;;36.03;6.70;;;;;;;;;;4866136;29;20961;-65
2022/06/12 00:57:32;;;;;;;33.65;6.70;;;;;;;;;;4844515;29;20055;-68
2022/06/12 01:00:00;;;;;;;39.72;6.65;;;;;;;;;;4867692;29;20036;-66
2022/06/12 01:02:31;;;;;;;43.92;7.03;;;;;;;;;;4865376;29;20872;-65
2022/06/12 01:07:43;;;;;;;31.95;6.25;;;;;;;;;;4867120;29;20130;-65
2022/06/12 01:10:10;;;;;;;36.97;6.90;;;;;;;;;;4866576;29;20040;-65
2022/06/12 01:12:38;;;;;;;45.90;6.85;;;;;;;;;;4867381;29;20182;-65
2022/06/12 01:15:09;;;;;;;38.03;6.80;;;;;;;;;;4864380;29;20153;-67
2022/06/12 01:17:35;;;;;;;36.53;6.50;;;;;;;;;;4867435;29;20042;-66
2022/06/12 01:20:04;;;;;;;41.72;7.95;;;;;;;;;;4866268;29;22005;-66
2022/06/12 01:22:39;;;;;;;35.80;6.93;;;;;;;;;;4863553;29;20032;-66
2022/06/12 01:25:24;;;;;;;44.67;7.20;;;;;;;;;;4866056;29;20087;-65
2022/06/12 01:27:56;;;;;;;36.95;6.68;;;;;;;;;;4825700;29;20040;-65
2022/06/12 01:30:29;;;;;;;43.25;7.43;;;;;;;;;;4866200;29;20036;-66
2022/06/12 01:33:07;;;;;;;41.17;7.82;;;;;;;;;;4865884;29;20182;-65
2022/06/12 01:35:36;;;;;;;39.95;7.55;;;;;;;;;;4866146;29;20040;-66
2022/06/12 01:38:16;;;;;;;41.85;7.50;;;;;;;;;;4865908;29;20107;-65
2022/06/12 01:40:57;;;;;;;44.30;6.90;;;;;;;;;;4849701;29;20091;-65
2022/06/12 01:43:47;;;;;;;45.70;7.90;;;;;;;;;;4865327;29;20044;-67
2022/06/12 01:46:18;;;;;;;41.45;7.57;;;;;;;;;;4865898;29;20052;-66
2022/06/12 01:48:43;;;;;;;45.60;7.40;;;;;;;;;;4865609;29;20055;-66
2022/06/12 01:51:30;;;;;;;42.05;7.55;;;;;;;;;;4867702;29;20037;-66
2022/06/12 01:53:59;;;;;;;32.05;6.82;;;;;;;;;;4866293;29;20521;-73
2022/06/12 01:56:24;;;;;;;36.95;6.32;;;;;;;;;;4866303;29;20190;-73
2022/06/12 01:58:49;;;;;;;32.85;6.18;;;;;;;;;;4865289;29;20028;-72
2022/06/12 02:01:15;;;;;;;30.63;6.55;;;;;;;;;;4866552;29;20121;-73
2022/06/12 02:03:50;;;;;;;32.80;6.32;;;;;;;;;;4867160;29;20837;-73
2022/06/12 02:06:29;;;;;;;33.28;6.95;;;;;;;;;;4865048;29;20719;-72
2022/06/12 02:09:03;;;;;;;33.50;5.78;;;;;;;;;;4867006;29;20032;-73
2022/06/12 02:14:25;;;;;;;41.03;6.43;;;;;;;;;;4866180;29;20050;-73
2022/06/12 02:16:53;;;;;;;32.72;5.95;;;;;;;;;;4865157;29;20383;-72
2022/06/12 02:19:23;;;;;;;35.40;6.78;;;;;;;;;;4849622;29;20040;-71
2022/06/12 02:21:53;;;;;;;32.13;6.25;;;;;;;;;;4849158;29;20044;-70
2022/06/12 02:24:29;;;;;;;29.20;5.38;;;;;;;;;;4867772;29;20118;-74
2022/06/12 02:27:00;;;;;;;33.25;5.90;;;;;;;;;;4864379;29;20164;-72
2022/06/12 02:29:30;;;;;;;30.58;5.07;;;;;;;;;;4847681;29;20129;-73
2022/06/12 02:31:57;;;;;;;32.72;6.28;;;;;;;;;;4863985;29;20861;-73
2022/06/12 02:34:25;;;;;;;34.13;6.00;;;;;;;;;;4847561;29;20040;-72
2022/06/12 02:36:55;;;;;;;29.85;5.07;;;;;;;;;;4865155;29;20763;-73
2022/06/12 02:39:22;;;;;;;30.05;5.45;;;;;;;;;;4862023;29;20054;-74
2022/06/12 02:41:53;;;;;;;30.98;5.00;;;;;;;;;;4866125;29;20154;-73
2022/06/12 02:44:42;;;;;;;28.57;6.10;;;;;;;;;;4864374;29;20054;-73
2022/06/12 02:47:13;;;;;;;31.13;5.28;;;;;;;;;;4853556;29;20045;-72
2022/06/12 02:49:39;;;;;;;22.95;5.07;;;;;;;;;;4863924;29;20048;-73
2022/06/12 02:52:32;;;;;;;31.27;5.53;;;;;;;;;;4865142;29;20090;-72
2022/06/12 02:55:07;;;;;;;27.98;4.65;;;;;;;;;;4866037;29;22499;-72
2022/06/12 02:57:51;;;;;;;33.40;5.45;;;;;;;;;;4843961;29;20052;-73
2022/06/12 03:00:22;;;;;;;25.23;4.95;;;;;;;;;;4864697;29;20108;-72
2022/06/12 03:02:57;;;;;;;28.20;4.65;;;;;;;;;;4847844;29;20036;-72
2022/06/12 03:05:28;;;;;;;24.67;5.18;;;;;;;;;;4866381;29;20040;-73
2022/06/12 03:08:01;;;;;;;30.17;4.97;;;;;;;;;;4865122;29;20041;-73
2022/06/12 03:10:31;;;;;;;27.83;4.80;;;;;;;;;;4865230;29;20136;-72
2022/06/12 03:12:58;;;;;;;;;;;;;;;;;;4864988;29;20897;-73
2022/06/12 03:15:47;;;;;;;19.50;4.35;;;;;;;;;;4865803;29;20010;-72
2022/06/12 03:18:17;;;;;;;24.15;4.35;;;;;;;;;;4829775;29;20292;-73
2022/06/12 03:20:59;;;;;;;25.58;4.43;;;;;;;;;;4862552;29;20078;-73
2022/06/12 03:23:27;;;;;;;21.55;4.38;;;;;;;;;;4865836;29;20840;-73
2022/06/12 03:25:54;;;;;;;21.48;4.70;;;;;;;;;;4866099;29;20814;-72
2022/06/12 03:28:23;;;;;;;28.42;5.03;;;;;;;;;;4863543;29;20052;-72
2022/06/12 03:31:15;;;;;;;28.83;5.53;;;;;;;;;;4863085;29;20040;-72
2022/06/12 03:33:50;;;;;;;25.77;4.95;;;;;;;;;;4831723;29;20931;-71
2022/06/12 03:36:26;;;;;;;22.50;4.45;;;;;;;;;;4864365;29;20501;-72
2022/06/12 03:39:00;;;;;;;23.48;5.00;;;;;;;;;;4865737;29;20128;-72
2022/06/12 03:41:33;;;;;;;23.73;4.90;;;;;;;;;;4846520;29;20047;-72
2022/06/12 03:44:22;;;;;;;22.75;4.05;;;;;;;;;;4865495;29;20032;-73
2022/06/12 03:46:54;;;;;;;17.85;4.57;;;;;;;;;;4864482;29;20876;-73
2022/06/12 03:49:22;;;;;;;21.77;4.28;;;;;;;;;;4865069;29;20842;-73
2022/06/12 03:52:17;;;;;;;26.50;4.93;;;;;;;;;;4866658;29;20075;-71
2022/06/12 03:55:04;;;;;;;23.35;4.32;;;;;;;;;;4825358;29;20146;-72
2022/06/12 03:57:51;;;;;;;18.48;3.75;;;;;;;;;;4867631;29;20047;-74
2022/06/12 04:00:26;;;;;;;18.90;3.88;;;;;;;;;;4868223;29;20147;-72
2022/06/12 04:02:56;;;;;;;19.90;3.55;;;;;;;;;;4863633;29;20041;-73
2022/06/12 04:05:30;;;;;;;20.85;4.15;;;;;;;;;;4865721;29;20212;-70
2022/06/12 04:07:59;;;;;;;16.83;3.47;;;;;;;;;;4865870;29;20147;-73
2022/06/12 04:10:27;;;;;;;15.75;3.50;;;;;;;;;;4867354;29;20123;-72
2022/06/12 04:12:53;;;;;;;20.73;4.38;;;;;;;;;;4867126;29;20040;-72
2022/06/12 04:15:35;;;;;;;16.02;3.90;;;;;;;;;;4868377;29;21592;-72
2022/06/12 04:18:01;;;;;;;17.27;4.10;;;;;;;;;;4868341;29;20881;-72
2022/06/12 04:20:31;;;;;;;14.73;3.72;;;;;;;;;;4868128;29;20051;-72
2022/06/12 04:22:58;;;;;;;20.17;4.10;;;;;;;;;;4868955;29;20051;-72
2022/06/12 04:25:44;;;;;;;16.48;3.95;;;;;;;;;;4867698;29;20095;-72
2022/06/12 04:28:41;;;;;;;16.67;3.55;;;;;;;;;;4867042;29;21142;-72
2022/06/12 04:31:10;;;;;;;16.08;3.65;;;;;;;;;;4823749;29;20047;-72
2022/06/12 04:33:45;;;;;;;17.27;3.50;;;;;;;;;;4851115;29;20556;-72
2022/06/12 04:36:10;;;;;;;15.35;3.60;;;;;;;;;;4866104;29;20044;-72
2022/06/12 04:38:36;;;;;;;14.93;3.30;;;;;;;;;;4847453;29;20094;-72
2022/06/12 04:41:02;;;;;;;16.42;3.55;;;;;;;;;;4866395;29;20147;-71
2022/06/12 04:43:28;;;;;;;16.60;3.78;;;;;;;;;;4869217;29;20071;-71
2022/06/12 04:45:53;;;;;;;17.92;3.70;;;;;;;;;;4857122;29;20047;-73
2022/06/12 04:48:22;;;;;;;16.40;3.55;;;;;;;;;;4865539;29;20045;-71
2022/06/12 04:50:48;;;;;;;17.83;4.28;;;;;;;;;;4867961;29;20032;-69
2022/06/12 04:53:13;;;;;;;14.63;3.40;;;;;;;;;;4862718;29;20700;-71
2022/06/12 04:55:38;;;;;;;16.83;3.40;;;;;;;;;;4868166;29;20036;-70
2022/06/12 04:58:05;;;;;;;13.75;3.25;;;;;;;;;;4867015;29;20119;-71
2022/06/12 05:00:34;;;;;;;14.13;3.17;;;;;;;;;;4867471;29;20040;-72
2022/06/12 05:03:00;;;;;;;14.48;3.00;;;;;;;;;;4866433;29;20044;-71
2022/06/12 05:05:27;;;;;;;20.02;4.10;;;;;;;;;;4865229;29;20055;-72
2022/06/12 05:07:53;;;;;;;16.52;3.42;;;;;;;;;;4867029;29;20036;-71
2022/06/12 05:10:19;;;;;;;15.02;3.72;;;;;;;;;;4857415;29;20036;-72
2022/06/12 05:12:47;;;;;;;12.27;3.47;;;;;;;;;;4848086;29;20051;-72
2022/06/12 05:15:15;;;;;;;17.58;3.80;;;;;;;;;;4846394;29;20164;-69
2022/06/12 05:17:41;;;;;;;12.02;3.42;;;;;;;;;;4863013;29;20059;-73
2022/06/12 05:20:07;;;;;;;13.35;3.47;;;;;;;;;;4864840;29;20044;-73
2022/06/12 05:22:33;;;;;;;12.70;3.42;;;;;;;;;;4866960;29;20032;-71
2022/06/12 05:24:58;;;;;;;11.02;3.10;;;;;;;;;;4866031;29;20115;-71
2022/06/12 05:27:23;;;;;;;13.57;3.28;;;;;;;;;;4867578;29;20044;-71
2022/06/12 05:29:50;;;;;;;15.75;3.38;;;;;;;;;;4854405;29;20044;-71
2022/06/12 05:32:17;;;;;;;13.88;3.20;;;;;;;;;;4866530;29;20588;-72
2022/06/12 05:34:42;;;;;;;11.68;3.10;;;;;;;;;;4865765;29;20254;-71
2022/06/12 05:37:08;;;;;;;12.95;3.50;;;;;;;;;;4860142;29;20056;-70
2022/06/12 05:39:38;;;;;;;17.85;3.40;;;;;;;;;;4863752;29;21316;-70
2022/06/12 05:42:04;;;;;;;9.63;2.70;;;;;;;;;;4866327;29;20047;-70
2022/06/12 05:44:30;;;;;;;11.82;3.40;;;;;;;;;;4846976;29;21355;-71
2022/06/12 05:46:58;;;;;;;17.02;4.03;;;;;;;;;;4850875;29;20111;-71
2022/06/12 05:49:24;;;;;;;12.60;2.95;;;;;;;;;;4865895;29;20052;-74
2022/06/12 05:51:49;;;;;;;14.00;3.40;;;;;;;;;;4863899;29;20180;-71
2022/06/12 05:54:17;;;;;;;15.73;3.40;;;;;;;;;;4860239;29;20036;-71
2022/06/12 05:56:42;;;;;;;11.10;3.13;;;;;;;;;;4863265;29;20569;-71
2022/06/12 05:59:08;;;;;;;13.95;3.20;;;;;;;;;;4846199;29;20036;-72
2022/06/12 06:01:33;;;;;;;15.10;3.28;;;;;;;;;;4844289;29;20476;-72
2022/06/12 06:03:59;;;;;;;11.30;2.60;;;;;;;;;;4860749;29;20499;-71
2022/06/12 06:06:26;;;;;;;12.35;2.67;;;;;;;;;;4862939;29;20341;-71
2022/06/12 06:08:52;;;;;;;9.75;2.75;;;;;;;;;;4861640;29;20040;-73
2022/06/12 06:11:20;;;;;;;15.10;2.85;;;;;;;;;;4837419;29;20075;-73
2022/06/12 06:13:46;;;;;;;17.10;3.22;;;;;;;;;;4856498;29;25001;-72
2022/06/12 06:16:11;;;;;;;12.07;3.15;;;;;;;;;;4862214;29;20573;-71
2022/06/12 06:18:39;;;;;;;14.77;2.80;;;;;;;;;;4861692;29;21912;-70
2022/06/12 06:21:08;;;;;;;12.35;2.70;;;;;;;;;;4863136;29;20043;-71
2022/06/12 06:23:36;;;;;;;13.43;3.10;;;;;;;;;;4863241;29;20092;-77
2022/06/12 06:26:01;;;;;;;11.25;2.63;;;;;;;;;;4830402;29;21928;-68
2022/06/12 06:28:27;;;;;;;11.50;2.88;;;;;;;;;;4862492;29;20521;-74
2022/06/12 06:30:52;;;;;;;10.93;2.70;;;;;;;;;;4864125;29;20098;-72
2022/06/12 06:33:18;;;;;;;15.23;3.30;;;;;;;;;;4866598;29;20051;-74
2022/06/12 06:35:43;;;;;;;14.18;2.83;;;;;;;;;;4844080;29;20509;-67
2022/06/12 06:38:09;;;;;;;11.35;3.28;;;;;;;;;;4866264;29;20486;-72
2022/06/12 06:40:34;;;;;;;16.17;3.28;;;;;;;;;;4865036;29;20599;-73
2022/06/12 06:43:00;;;;;;;11.90;3.33;;;;;;;;;;4861935;29;20382;-70
2022/06/12 06:48:10;;;;;;;11.57;3.30;;;;;;;;;;4861993;29;20580;-69
2022/06/12 06:50:39;;;;;;;15.07;2.90;;;;;;;;;;4861341;29;20028;-70
2022/06/12 06:53:05;;;;;;;8.68;2.83;;;;;;;;;;4864024;29;20264;-70
2022/06/12 06:55:33;;;;;;;13.50;3.08;;;;;;;;;;4862506;29;20255;-70
2022/06/12 06:57:59;;;;;;;11.65;3.15;;;;;;;;;;4862785;29;20048;-70
2022/06/12 07:00:27;;;;;;;13.43;3.08;;;;;;;;;;4862701;29;20044;-70
2022/06/12 07:02:53;;;;;;;12.25;3.17;;;;;;;;;;4860498;29;20553;-69
2022/06/12 07:05:18;;;;;;;12.18;3.03;;;;;;;;;;4862586;29;20037;-71
2022/06/12 07:07:43;;;;;;;10.63;2.38;;;;;;;;;;4862405;29;20160;-70
2022/06/12 07:10:11;;;;;;;11.48;2.80;;;;;;;;;;4861193;29;20043;-69
2022/06/12 07:12:37;;;;;;;11.88;2.78;;;;;;;;;;4863045;29;20476;-72
2022/06/12 07:15:03;;;;;;;13.77;3.10;;;;;;;;;;4860974;29;20047;-70
2022/06/12 07:17:28;;;;;;;10.25;2.95;;;;;;;;;;4859722;29;20290;-74
2022/06/12 07:19:53;;;;;;;13.65;3.10;;;;;;;;;;4859233;29;20068;-75
2022/06/12 07:22:21;;;;;;;9.98;3.00;;;;;;;;;;4862913;29;20072;-76
2022/06/12 07:24:46;;;;;;;13.23;3.15;;;;;;;;;;4862521;29;20036;-75
2022/06/12 07:27:11;;;;;;;9.75;2.58;;;;;;;;;;4865368;29;20059;-75
2022/06/12 07:29:37;;;;;;;11.45;2.78;;;;;;;;;;4832634;29;20059;-75
2022/06/12 07:32:03;;;;;;;10.52;2.53;;;;;;;;;;4866175;29;20158;-74
2022/06/12 07:34:28;;;;;;;6.82;2.40;;;;;;;;;;4845207;29;20266;-74
2022/06/12 07:36:55;;;;;;;10.88;2.80;;;;;;;;;;4866417;29;20596;-75
2022/06/12 07:39:22;;;;;;;9.70;3.08;;;;;;;;;;4866364;29;20048;-75
2022/06/12 07:41:48;;;;;;;9.15;2.58;;;;;;;;;;4866161;29;20305;-73
2022/06/12 07:44:16;;;;;;;11.63;2.95;;;;;;;;;;4865822;29;20191;-74
2022/06/12 07:46:41;;;;;;;10.07;2.67;;;;;;;;;;4844484;29;20041;-74
2022/06/12 07:49:07;;;;;;;10.18;2.70;;;;;;;;;;4865213;29;20635;-72
2022/06/12 07:51:32;;;;;;;10.85;3.00;;;;;;;;;;4865142;29;20173;-72
2022/06/12 07:53:58;;;;;;;8.48;2.65;;;;;;;;;;4866200;29;20545;-72
2022/06/12 07:56:24;;;;;;;12.25;2.53;;;;;;;;;;4864520;29;20044;-71
2022/06/12 07:58:50;;;;;;;13.60;3.10;;;;;;;;;;4865999;29;20048;-72
2022/06/12 08:01:17;;;;;;;13.52;3.47;;;;;;;;;;4865754;29;20083;-71
2022/06/12 08:03:43;;;;;;;10.30;3.22;;;;;;;;;;4848193;29;20123;-72
2022/06/12 08:06:09;;;;;;;9.65;2.97;;;;;;;;;;4864813;29;20407;-73
2022/06/12 08:08:37;;;;;;;12.45;2.72;;;;;;;;;;4865983;29;20607;-72
2022/06/12 08:11:02;;;;;;;11.40;2.88;;;;;;;;;;4848459;29;20258;-73
2022/06/12 08:13:28;;;;;;;12.98;2.83;;;;;;;;;;4865898;29;20687;-74
2022/06/12 08:15:54;;;;;;;10.95;3.08;;;;;;;;;;4864993;29;20139;-73
2022/06/12 08:18:20;;;;;;;9.98;3.17;;;;;;;;;;4866084;29;20048;-72
2022/06/12 08:20:49;;;;;;;11.02;2.65;;;;;;;;;;4849988;29;20319;-75
2022/06/12 08:23:33;;;;;;;11.55;2.60;;;;;;;;;;4864819;29;20036;-75
2022/06/12 08:26:07;;;;;;;11.02;3.08;;;;;;;;;;4864824;29;20307;-75
2022/06/12 08:28:37;;;;;;;11.13;2.80;;;;;;;;;;4850561;29;20041;-73
2022/06/12 08:31:07;;;;;;;15.30;3.40;;;;;;;;;;4846539;29;20055;-74
2022/06/12 08:33:33;;;;;;;10.02;2.80;;;;;;;;;;4866936;29;20089;-68
2022/06/12 08:36:01;;;;;;;19.30;4.00;;;;;;;;;;4866560;29;20036;-75
2022/06/12 08:38:26;;;;;;;13.93;3.22;;;;;;;;;;4849246;29;20143;-76
2022/06/12 08:41:09;;;;;;;13.73;3.13;;;;;;;;;;4863845;29;20037;-77
2022/06/12 08:43:47;;;;;;;12.40;3.30;;;;;;;;;;4867501;29;20063;-72
2022/06/12 08:46:24;;;;;;;14.67;3.60;;;;;;;;;;4865211;29;20739;-68
2022/06/12 08:49:04;;;;;;;14.95;3.22;;;;;;;;;;4858910;29;20059;-72
2022/06/12 08:51:29;;;;;;;11.45;3.10;;;;;;;;;;4865842;29;20863;-71
2022/06/12 08:54:00;;;;;;;10.77;2.80;;;;;;;;;;4849715;29;20036;-71
2022/06/12 08:56:25;;;;;;;11.77;2.90;;;;;;;;;;4863602;29;20222;-73
2022/06/12 08:58:51;;;;;;;14.50;3.53;;;;;;;;;;4860872;29;20036;-69
2022/06/12 09:01:16;;;;;;;11.82;3.05;;;;;;;;;;4867183;29;20044;-70
2022/06/12 09:03:49;;;;;;;13.05;3.38;;;;;;;;;;4860757;29;20115;-69
2022/06/12 09:06:33;;;;;;;13.93;3.10;;;;;;;;;;4863842;29;20094;-67
2022/06/12 09:09:01;;;;;;;11.02;3.33;;;;;;;;;;4862745;29;20598;-74
2022/06/12 09:11:30;;;;;;;10.52;2.78;;;;;;;;;;4859964;29;20048;-75
2022/06/12 09:14:14;;;;;;;9.40;2.97;;;;;;;;;;4861392;29;20067;-74
2022/06/12 09:16:58;;;;;;;11.55;3.80;;;;;;;;;;4864882;29;20043;-74
2022/06/12 09:19:32;;;;;;;16.15;3.25;;;;;;;;;;4865276;29;21172;-71
2022/06/12 09:22:09;;;;;;;15.48;3.53;;;;;;;;;;4849332;29;20036;-73
2022/06/12 09:24:46;;;;;;;11.40;3.00;;;;;;;;;;4843852;29;20036;-73
2022/06/12 09:27:17;;;;;;;12.98;3.60;;;;;;;;;;4856658;29;20033;-73
2022/06/12 09:30:01;;;;;;;14.10;3.63;;;;;;;;;;4861107;29;20064;-75
2022/06/12 09:32:39;;;;;;;13.30;3.13;;;;;;;;;;4862124;29;20576;-70
2022/06/12 09:35:23;;;;;;;9.88;3.33;;;;;;;;;;4845011;29;20036;-71
2022/06/12 09:38:19;;;;;;;9.60;3.38;;;;;;;;;;4864213;29;20567;-73
2022/06/12 09:41:04;;;;;;;11.95;3.22;;;;;;;;;;4862983;29;20778;-70
2022/06/12 09:43:35;;;;;;;14.23;3.05;;;;;;;;;;4862705;29;20795;-70
2022/06/12 09:46:10;;;;;;;13.77;3.83;;;;;;;;;;4846176;29;20131;-71
2022/06/12 09:48:41;;;;;;;13.88;3.72;;;;;;;;;;4862375;29;20591;-70
2022/06/12 09:51:36;;;;;;;12.52;3.20;;;;;;;;;;4860290;29;20038;-69
2022/06/12 09:54:20;;;;;;;14.30;3.60;;;;;;;;;;4839687;29;20905;-71
2022/06/12 09:56:55;;;;;;;16.63;3.42;;;;;;;;;;4861897;29;20036;-71
2022/06/12 09:59:26;;;;;;;11.68;3.30;;;;;;;;;;4863814;29;20032;-71
2022/06/12 10:01:55;;;;;;;13.77;3.53;;;;;;;;;;4846276;29;20035;-70
2022/06/12 10:04:23;;;;;;;11.98;3.47;;;;;;;;;;4842994;29;20723;-70
2022/06/12 10:06:55;;;;;;;16.90;3.58;;;;;;;;;;4864428;29;20136;-70
2022/06/12 10:09:35;;;;;;;14.30;3.53;;;;;;;;;;4864841;29;20187;-69
2022/06/12 10:12:07;;;;;;;13.05;3.10;;;;;;;;;;4861426;29;20032;-70
2022/06/12 10:14:41;;;;;;;12.70;3.58;;;;;;;;;;4863114;29;20684;-69
2022/06/12 10:17:08;;;;;;;12.23;3.55;;;;;;;;;;4864275;29;20044;-70
2022/06/12 10:19:38;;;;;;;17.20;3.72;;;;;;;;;;4862976;29;20090;-72
2022/06/12 10:22:07;;;;;;;17.60;4.10;;;;;;;;;;4865751;29;20039;-71
2022/06/12 10:24:33;;;;;;;16.70;3.83;;;;;;;;;;4865247;29;20915;-73
2022/06/12 10:27:09;;;;;;;14.10;3.50;;;;;;;;;;4864682;29;20052;-75
2022/06/12 10:30:00;;;;;;;12.20;3.45;;;;;;;;;;4864366;29;20086;-67
2022/06/12 10:32:40;;;;;;;12.95;3.38;;;;;;;;;;4858811;29;20162;-71
2022/06/12 10:35:16;;;;;;;13.38;3.42;;;;;;;;;;4859361;29;20671;-71
2022/06/12 10:37:46;;;;;;;16.55;3.80;;;;;;;;;;4859509;29;20820;-71
2022/06/12 10:40:11;;;;;;;12.40;3.30;;;;;;;;;;4842561;29;22229;-71
2022/06/12 10:42:43;;;;;;;14.00;3.67;;;;;;;;;;4861906;29;20036;-72
2022/06/12 10:45:28;;;;;;;14.63;3.63;;;;;;;;;;4863596;29;20043;-73
2022/06/12 10:47:56;;;;;;;12.90;3.63;;;;;;;;;;4856964;29;21225;-73
2022/06/12 10:50:30;;;;;;;15.02;3.50;;;;;;;;;;4863486;29;20092;-77
2022/06/12 10:53:08;;;;;;;11.82;3.47;;;;;;;;;;4863566;29;20040;-73
2022/06/12 10:55:36;;;;;;;17.30;3.67;;;;;;;;;;4866898;29;20329;-72
2022/06/12 10:58:20;;;;;;;12.75;3.40;;;;;;;;;;4865424;29;21039;-74
2022/06/12 11:00:47;;;;;;;13.73;3.63;;;;;;;;;;4863815;29;20143;-72
2022/06/12 11:03:21;;;;;;;16.10;3.60;;;;;;;;;;4861756;29;20036;-70
2022/06/12 11:06:05;;;;;;;12.48;3.55;;;;;;;;;;4861991;29;20044;-70
2022/06/12 11:08:33;;;;;;;13.77;3.47;;;;;;;;;;4863618;29;20058;-74
2022/06/12 11:11:34;;;;;;;11.75;3.33;;;;;;;;;;4865236;29;20143;-76
2022/06/12 11:14:05;;;;;;;13.60;3.47;;;;;;;;;;4801116;29;20081;-74
2022/06/12 11:16:51;;;;;;;12.90;3.25;;;;;;;;;;4853276;29;20036;-72
2022/06/12 11:19:22;;;;;;;13.85;3.53;;;;;;;;;;4825790;29;20139;-74
2022/06/12 11:21:48;;;;;;;10.32;3.35;;;;;;;;;;4862665;29;20103;-70
2022/06/12 11:24:18;;;;;;;14.57;3.75;;;;;;;;;;4863121;29;20037;-72
2022/06/12 11:27:04;;;;;;;13.00;3.40;;;;;;;;;;4854310;29;21018;-73
2022/06/12 11:29:30;;;;;;;13.45;3.92;;;;;;;;;;4862035;29;20047;-71
2022/06/12 11:32:14;;;;;;;16.75;3.83;;;;;;;;;;4860307;29;20131;-74
2022/06/12 11:35:04;;;;;;;17.02;4.15;;;;;;;;;;4860048;29;20130;-71
2022/06/12 11:37:36;;;;;;;15.43;3.58;;;;;;;;;;4860964;29;20078;-72
2022/06/12 11:40:08;;;;;;;18.95;3.78;;;;;;;;;;4863756;29;20868;-73
2022/06/12 11:42:43;;;;;;;16.23;3.58;;;;;;;;;;4862504;29;20044;-72
2022/06/12 11:45:16;;;;;;;16.95;4.20;;;;;;;;;;4862864;29;20043;-69
2022/06/12 11:47:59;;;;;;;11.65;3.15;;;;;;;;;;4862534;29;20051;-70
2022/06/12 11:50:31;;;;;;;17.85;3.70;;;;;;;;;;4844579;29;20071;-69
2022/06/12 11:52:56;;;;;;;;;;;;;;;;;;4864662;29;20072;-73
2022/06/12 11:55:26;;;;;;;17.23;3.97;;;;;;;;;;4862706;29;19927;-73
2022/06/12 11:57:51;;;;;;;14.73;3.45;;;;;;;;;;4862745;29;20917;-75
2022/06/12 12:00:26;;;;;;;14.00;3.63;;;;;;;;;;4859990;29;20661;-73
2022/06/12 12:03:04;;;;;;;17.05;3.67;;;;;;;;;;4863559;29;20131;-74
2022/06/12 12:05:49;;;;;;;14.27;3.50;;;;;;;;;;4863063;29;20040;-70
2022/06/12 12:08:33;;;;;;;13.27;3.40;;;;;;;;;;4862868;29;20115;-74
2022/06/12 12:10:58;;;;;;;15.23;4.07;;;;;;;;;;4837522;29;20913;-73
2022/06/12 12:13:26;;;;;;;17.48;3.60;;;;;;;;;;4866753;29;20044;-74
2022/06/12 12:15:54;;;;;;;23.75;4.15;;;;;;;;;;4850351;29;20128;-74
2022/06/12 12:18:28;;;;;;;15.60;3.45;;;;;;;;;;4864207;29;20130;-73
2022/06/12 12:20:54;;;;;;;18.85;4.10;;;;;;;;;;4865738;29;20111;-73
2022/06/12 12:23:27;;;;;;;17.15;3.72;;;;;;;;;;4866276;29;20173;-72
2022/06/12 12:26:01;;;;;;;23.38;4.78;;;;;;;;;;4864926;29;20163;-70
2022/06/12 12:28:31;;;;;;;18.73;3.88;;;;;;;;;;4866229;29;20032;-72
2022/06/12 12:31:04;;;;;;;15.80;4.03;;;;;;;;;;4862513;29;20988;-72
2022/06/12 12:33:30;;;;;;;16.23;3.38;;;;;;;;;;4865455;29;20063;-72
2022/06/12 12:41:42;;;;;;;17.33;3.58;;;;;;;;;;4864379;29;20704;-71
2022/06/12 12:44:08;;;;;;;16.25;3.70;;;;;;;;;;4865846;29;20083;-73
2022/06/12 12:46:41;;;;;;;15.65;4.07;;;;;;;;;;4844003;29;21030;-72
2022/06/12 12:49:07;;;;;;;17.85;3.85;;;;;;;;;;4864556;29;20052;-71
2022/06/12 12:51:36;;;;;;;15.10;3.70;;;;;;;;;;4863545;29;20753;-72
2022/06/12 12:54:12;;;;;;;15.05;3.72;;;;;;;;;;4862027;29;20040;-72
2022/06/12 12:56:50;;;;;;;21.67;4.40;;;;;;;;;;4863885;29;20895;-73
2022/06/12 12:59:18;;;;;;;11.10;3.78;;;;;;;;;;4861053;29;20048;-71
2022/06/12 13:01:47;;;;;;;17.60;3.40;;;;;;;;;;4863131;29;20060;-69
2022/06/12 13:04:19;;;;;;;17.17;4.00;;;;;;;;;;4863114;29;20728;-70
2022/06/12 13:07:09;;;;;;;15.82;3.83;;;;;;;;;;4863524;29;20040;-69
2022/06/12 13:09:50;;;;;;;21.95;4.28;;;;;;;;;;4862292;29;20063;-68
2022/06/12 13:12:34;;;;;;;16.85;4.30;;;;;;;;;;4858806;29;20063;-67
2022/06/12 13:15:16;;;;;;;17.00;4.10;;;;;;;;;;4864171;29;20207;-68
2022/06/12 13:17:59;;;;;;;18.75;4.20;;;;;;;;;;4864654;29;20132;-69
2022/06/12 13:20:31;;;;;;;16.10;3.72;;;;;;;;;;4864223;29;20135;-69
2022/06/12 13:22:56;;;;;;;17.85;4.15;;;;;;;;;;4862453;29;20451;-67
2022/06/12 13:25:24;;;;;;;17.45;4.60;;;;;;;;;;4861388;29;20036;-71
2022/06/12 13:27:49;;;;;;;18.13;4.35;;;;;;;;;;4861467;29;20032;-73
2022/06/12 13:30:23;;;;;;;21.67;4.75;;;;;;;;;;4861463;29;20043;-73
2022/06/12 13:32:48;;;;;;;18.67;4.32;;;;;;;;;;4862733;29;20036;-76
2022/06/12 13:35:21;;;;;;;17.02;3.67;;;;;;;;;;4863067;29;20044;-72
2022/06/12 13:37:49;;;;;;;18.58;4.35;;;;;;;;;;4824162;29;20654;-71
2022/06/12 13:40:30;;;;;;;18.58;4.38;;;;;;;;;;4859446;29;20051;-71
2022/06/12 13:43:03;;;;;;;18.13;4.35;;;;;;;;;;4861824;29;20498;-73
2022/06/12 13:45:28;;;;;;;17.10;4.07;;;;;;;;;;4843393;29;20161;-73
2022/06/12 13:47:54;;;;;;;15.43;4.47;;;;;;;;;;4862146;29;21765;-75
2022/06/12 13:50:22;;;;;;;16.17;4.25;;;;;;;;;;4862442;29;20037;-73
2022/06/12 13:53:01;;;;;;;15.27;4.05;;;;;;;;;;4845885;29;20446;-72
2022/06/12 13:55:29;;;;;;;15.82;3.95;;;;;;;;;;4862208;29;20470;-71
2022/06/12 13:57:55;;;;;;;16.25;3.97;;;;;;;;;;4859011;29;20040;-72
2022/06/12 14:00:33;;;;;;;16.90;4.05;;;;;;;;;;4857409;29;20084;-72
2022/06/12 14:03:01;;;;;;;12.20;3.83;;;;;;;;;;4840113;29;20032;-74
2022/06/12 14:05:30;;;;;;;17.52;3.95;;;;;;;;;;4860795;29;20063;-73
2022/06/12 14:07:56;;;;;;;16.45;4.18;;;;;;;;;;4862409;29;20032;-73
2022/06/12 14:10:29;;;;;;;14.10;3.92;;;;;;;;;;4842247;29;20690;-72
2022/06/12 14:12:55;;;;;;;16.70;4.53;;;;;;;;;;4860239;29;20044;-73
2022/06/12 14:15:28;;;;;;;15.70;4.35;;;;;;;;;;4862445;29;20135;-71
2022/06/12 14:17:55;;;;;;;13.88;3.90;;;;;;;;;;4862271;29;20040;-73
2022/06/12 14:20:26;;;;;;;15.82;4.47;;;;;;;;;;4838811;29;20837;-71
2022/06/12 14:22:58;;;;;;;17.10;4.22;;;;;;;;;;4860463;29;20298;-71
2022/06/12 14:25:23;;;;;;;14.30;3.92;;;;;;;;;;4859068;29;20040;-73
2022/06/12 14:27:57;;;;;;;13.23;3.67;;;;;;;;;;4864584;29;20047;-76
2022/06/12 14:30:40;;;;;;;14.55;3.80;;;;;;;;;;4845863;29;20040;-71
2022/06/12 14:33:25;;;;;;;15.18;4.40;;;;;;;;;;4860898;29;20103;-75
2022/06/12 14:35:50;;;;;;;18.08;4.57;;;;;;;;;;4863898;29;20056;-69
2022/06/12 14:38:19;;;;;;;16.80;4.10;;;;;;;;;;4866567;29;20056;-71
2022/06/12 14:40:47;;;;;;;16.35;4.18;;;;;;;;;;4834075;29;20071;-72
2022/06/12 14:43:26;;;;;;;16.23;4.22;;;;;;;;;;4861947;29;20040;-69
2022/06/12 14:45:53;;;;;;;16.70;4.28;;;;;;;;;;4859972;29;20083;-69
2022/06/12 14:48:29;;;;;;;14.20;4.03;;;;;;;;;;4862809;29;20174;-70
2022/06/12 14:50:55;;;;;;;14.35;3.75;;;;;;;;;;4859807;29;20898;-72
2022/06/12 14:53:21;;;;;;;13.18;3.78;;;;;;;;;;4863113;29;20516;-72
2022/06/12 14:55:49;;;;;;;10.15;3.83;;;;;;;;;;4860202;29;20057;-72
2022/06/12 14:58:16;;;;;;;13.95;3.95;;;;;;;;;;4861632;29;20876;-70
2022/06/12 15:00:42;;;;;;;14.15;3.80;;;;;;;;;;4861169;29;20158;-69
2022/06/12 15:03:17;;;;;;;14.20;3.95;;;;;;;;;;4859351;29;20111;-70
2022/06/12 15:05:42;;;;;;;15.27;4.13;;;;;;;;;;4861746;29;20051;-70
2022/06/12 15:08:09;;;;;;;17.35;3.60;;;;;;;;;;4862783;29;20262;-73